CheckWX is a tool to help pilots better visualize weather data.  It is not intended as a substitute for an official pre-flight weather briefing.

13:14:23 UTC

KRNC METAR
Warren County Memorial Airport
Mc Minnville, Tennessee, USA
Current

19 mins ago

KRNC 181255Z AUTO 00000KT 10SM CLR 22/20 A3002 RMK A01
Observed
Aug-18 @ 12:55 UTC
Visibility
10 SM
Flight Rules
VFR
Cloud Levels
  • Clear skies
Temperature
22°C / 72°F
Dewpoint
20°C / 68°F
Humidity
88%
Altimeter
30.02" Hg
Pressure
1016.62 hPa
Previous

59 mins ago

KRNC 181215Z AUTO 00000KT 9SM CLR 20/19 A3002 RMK A01
Observed
Aug-18 @ 12:15 UTC
Visibility
9 SM
Flight Rules
VFR
Cloud Levels
  • Clear skies
Temperature
20°C / 68°F
Dewpoint
19°C / 66°F
Humidity
94%
Altimeter
30.02" Hg
Pressure
1016.62 hPa
Previous

1 hour ago

KRNC 181155Z AUTO 00000KT 8SM CLR 19/19 A3002 RMK A01
Observed
Aug-18 @ 11:55 UTC
Visibility
8 SM
Flight Rules
VFR
Cloud Levels
  • Clear skies
Temperature
19°C / 66°F
Dewpoint
19°C / 66°F
Humidity
100%
Altimeter
30.02" Hg
Pressure
1016.62 hPa